sensor_id;sensor_type;location;lat;lon;timestamp;pressure;altitude;pressure_sealevel;temperature;humidity
64862;BME280;62652;42.274;-71.436;2023-03-04T00:00:00;100980.0;;;5.222222222222221;unknown
64862;BME280;62652;42.274;-71.436;2023-03-04T00:01:01;100980.0;;;5.222222222222221;unknown
64862;BME280;62652;42.274;-71.436;2023-03-04T00:02:01;100980.0;;;5.1111111111111125;unknown
64862;BME280;62652;42.274;-71.436;2023-03-04T00:03:00;100980.0;;;5.1111111111111125;unknown
64862;BME280;62652;42.274;-71.436;2023-03-04T00:04:01;100980.0;;;5.222222222222221;unknown
64862;BME280;62652;42.274;-71.436;2023-03-04T00:05:00;100990.0;;;5.222222222222221;unknown
64862;BME280;62652;42.274;-71.436;2023-03-04T00:06:00;100990.0;;;5.222222222222221;unknown
64862;BME280;62652;42.274;-71.436;2023-03-04T00:07:00;100990.0;;;5.222222222222221;unknown
64862;BME280;62652;42.274;-71.436;2023-03-04T00:08:01;100990.0;;;5.222222222222221;unknown
64862;BME280;62652;42.274;-71.436;2023-03-04T00:09:01;100990.0;;;5.222222222222221;unknown
64862;BME280;62652;42.274;-71.436;2023-03-04T00:10:01;100990.0;;;5.222222222222221;unknown
64862;BME280;62652;42.274;-71.436;2023-03-04T00:11:01;100990.0;;;5.1111111111111125;unknown
64862;BME280;62652;42.274;-71.436;2023-03-04T00:12:01;100990.0;;;5.1111111111111125;unknown
64862;BME280;62652;42.274;-71.436;2023-03-04T00:13:00;100990.0;;;5.1111111111111125;unknown
64862;BME280;62652;42.274;-71.436;2023-03-04T00:14:01;101000.0;;;5.1111111111111125;unknown
64862;BME280;62652;42.274;-71.436;2023-03-04T00:15:01;101000.0;;;5.1111111111111125;unknown
64862;BME280;62652;42.274;-71.436;2023-03-04T00:16:00;100990.0;;;4.8888888888888875;unknown
64862;BME280;62652;42.274;-71.436;2023-03-04T00:17:00;100990.0;;;5.0;unknown
64862;BME280;62652;42.274;-71.436;2023-03-04T00:18:00;101000.0;;;4.8888888888888875;unknown
64862;BME280;62652;42.274;-71.436;2023-03-04T00:19:01;100990.0;;;4.8888888888888875;unknown
64862;BME280;62652;42.274;-71.436;2023-03-04T00:20:01;100990.0;;;4.8888888888888875;unknown
64862;BME280;62652;42.274;-71.436;2023-03-04T00:21:00;100990.0;;;4.8888888888888875;unknown
64862;BME280;62652;42.274;-71.436;2023-03-04T00:22:01;100990.0;;;4.777777777777779;unknown
64862;BME280;62652;42.274;-71.436;2023-03-04T00:23:00;100990.0;;;4.777777777777779;unknown
64862;BME280;62652;42.274;-71.436;2023-03-04T00:24:00;101000.0;;;4.722222222222222;unknown
64862;BME280;62652;42.274;-71.436;2023-03-04T00:25:00;100990.0;;;4.722222222222222;unknown
64862;BME280;62652;42.274;-71.436;2023-03-04T00:26:01;101000.0;;;4.722222222222222;unknown
64862;BME280;62652;42.274;-71.436;2023-03-04T00:27:00;101000.0;;;4.722222222222222;unknown
64862;BME280;62652;42.274;-71.436;2023-03-04T00:28:00;101000.0;;;4.722222222222222;unknown
64862;BME280;62652;42.274;-71.436;2023-03-04T00:29:00;101000.0;;;4.722222222222222;unknown
64862;BME280;62652;42.274;-71.436;2023-03-04T00:30:00;101000.0;;;4.722222222222222;unknown
64862;BME280;62652;42.274;-71.436;2023-03-04T00:31:01;101000.0;;;4.722222222222222;unknown
64862;BME280;62652;42.274;-71.436;2023-03-04T00:32:01;101000.0;;;4.777777777777779;unknown
64862;BME280;62652;42.274;-71.436;2023-03-04T00:33:00;101000.0;;;4.722222222222222;unknown
64862;BME280;62652;42.274;-71.436;2023-03-04T00:34:00;101000.0;;;4.777777777777779;unknown
64862;BME280;62652;42.274;-71.436;2023-03-04T00:35:01;101000.0;;;4.722222222222222;unknown
64862;BME280;62652;42.274;-71.436;2023-03-04T00:36:00;101000.0;;;4.777777777777779;unknown
64862;BME280;62652;42.274;-71.436;2023-03-04T00:37:00;101000.0;;;4.777777777777779;unknown
64862;BME280;62652;42.274;-71.436;2023-03-04T00:38:00;101010.0;;;4.777777777777779;unknown
64862;BME280;62652;42.274;-71.436;2023-03-04T00:39:01;101010.0;;;4.777777777777779;unknown
64862;BME280;62652;42.274;-71.436;2023-03-04T00:40:01;101000.0;;;4.722222222222222;unknown
64862;BME280;62652;42.274;-71.436;2023-03-04T00:41:01;101000.0;;;4.61111111111111;unknown
64862;BME280;62652;42.274;-71.436;2023-03-04T00:42:00;101000.0;;;4.61111111111111;unknown
64862;BME280;62652;42.274;-71.436;2023-03-04T00:43:01;101000.0;;;4.61111111111111;unknown
64862;BME280;62652;42.274;-71.436;2023-03-04T00:44:00;101000.0;;;4.61111111111111;unknown
64862;BME280;62652;42.274;-71.436;2023-03-04T00:45:01;101000.0;;;4.61111111111111;unknown
64862;BME280;62652;42.274;-71.436;2023-03-04T00:46:01;100990.0;;;4.61111111111111;unknown
64862;BME280;62652;42.274;-71.436;2023-03-04T00:47:00;100990.0;;;4.500000000000001;unknown
64862;BME280;62652;42.274;-71.436;2023-03-04T00:48:00;100990.0;;;4.500000000000001;unknown
64862;BME280;62652;42.274;-71.436;2023-03-04T00:49:01;100990.0;;;4.500000000000001;unknown
64862;BME280;62652;42.274;-71.436;2023-03-04T00:50:01;100980.0;;;4.500000000000001;unknown
64862;BME280;62652;42.274;-71.436;2023-03-04T00:51:00;100980.0;;;4.61111111111111;unknown
64862;BME280;62652;42.274;-71.436;2023-03-04T00:52:01;100990.0;;;4.61111111111111;unknown
64862;BME280;62652;42.274;-71.436;2023-03-04T00:53:00;100990.0;;;4.500000000000001;unknown
64862;BME280;62652;42.274;-71.436;2023-03-04T00:54:01;100990.0;;;4.61111111111111;unknown
64862;BME280;62652;42.274;-71.436;2023-03-04T00:55:01;100990.0;;;4.500000000000001;unknown
64862;BME280;62652;42.274;-71.436;2023-03-04T00:56:00;100990.0;;;4.500000000000001;unknown
64862;BME280;62652;42.274;-71.436;2023-03-04T00:57:00;100990.0;;;4.388888888888888;unknown
64862;BME280;62652;42.274;-71.436;2023-03-04T00:58:01;100980.0;;;4.388888888888888;unknown
64862;BME280;62652;42.274;-71.436;2023-03-04T00:59:01;100990.0;;;4.500000000000001;unknown
64862;BME280;62652;42.274;-71.436;2023-03-04T01:00:01;100980.0;;;4.388888888888888;unknown
64862;BME280;62652;42.274;-71.436;2023-03-04T01:01:01;100980.0;;;4.388888888888888;unknown
64862;BME280;62652;42.274;-71.436;2023-03-04T01:02:01;100980.0;;;4.388888888888888;unknown
64862;BME280;62652;42.274;-71.436;2023-03-04T01:03:01;100980.0;;;4.388888888888888;unknown
64862;BME280;62652;42.274;-71.436;2023-03-04T01:04:00;100980.0;;;4.388888888888888;unknown
64862;BME280;62652;42.274;-71.436;2023-03-04T01:05:01;100980.0;;;4.388888888888888;unknown
64862;BME280;62652;42.274;-71.436;2023-03-04T01:06:01;100980.0;;;4.388888888888888;unknown
64862;BME280;62652;42.274;-71.436;2023-03-04T01:07:01;100970.0;;;4.388888888888888;unknown
64862;BME280;62652;42.274;-71.436;2023-03-04T01:08:00;100970.0;;;4.388888888888888;unknown
64862;BME280;62652;42.274;-71.436;2023-03-04T01:09:01;100970.0;;;4.2777777777777795;unknown
64862;BME280;62652;42.274;-71.436;2023-03-04T01:10:01;100960.0;;;4.388888888888888;unknown
64862;BME280;62652;42.274;-71.436;2023-03-04T01:11:01;100960.0;;;4.388888888888888;unknown
64862;BME280;62652;42.274;-71.436;2023-03-04T01:12:01;100970.0;;;4.388888888888888;unknown
64862;BME280;62652;42.274;-71.436;2023-03-04T01:13:00;100970.0;;;4.2777777777777795;unknown
64862;BME280;62652;42.274;-71.436;2023-03-04T01:14:01;100970.0;;;4.2777777777777795;unknown
64862;BME280;62652;42.274;-71.436;2023-03-04T01:15:01;100960.0;;;4.388888888888888;unknown
64862;BME280;62652;42.274;-71.436;2023-03-04T01:16:01;100960.0;;;4.2777777777777795;unknown
64862;BME280;62652;42.274;-71.436;2023-03-04T01:17:00;100960.0;;;4.2777777777777795;unknown
64862;BME280;62652;42.274;-71.436;2023-03-04T01:18:01;100950.0;;;4.2777777777777795;unknown
64862;BME280;62652;42.274;-71.436;2023-03-04T01:19:01;100950.0;;;4.2777777777777795;unknown
64862;BME280;62652;42.274;-71.436;2023-03-04T01:20:00;100960.0;;;4.222222222222223;unknown
64862;BME280;62652;42.274;-71.436;2023-03-04T01:21:01;100960.0;;;4.222222222222223;unknown
64862;BME280;62652;42.274;-71.436;2023-03-04T01:22:01;100950.0;;;4.222222222222223;unknown
64862;BME280;62652;42.274;-71.436;2023-03-04T01:23:00;100950.0;;;4.222222222222223;unknown
64862;BME280;62652;42.274;-71.436;2023-03-04T01:24:01;100940.0;;;4.222222222222223;unknown
64862;BME280;62652;42.274;-71.436;2023-03-04T01:25:00;100940.0;;;4.111111111111111;unknown
64862;BME280;62652;42.274;-71.436;2023-03-04T01:26:01;100940.0;;;4.111111111111111;unknown
64862;BME280;62652;42.274;-71.436;2023-03-04T01:27:00;100940.0;;;4.111111111111111;unknown
64862;BME280;62652;42.274;-71.436;2023-03-04T01:28:00;100940.0;;;4.222222222222223;unknown
64862;BME280;62652;42.274;-71.436;2023-03-04T01:29:02;100930.0;;;4.222222222222223;unknown
64862;BME280;62652;42.274;-71.436;2023-03-04T01:30:01;100930.0;;;4.222222222222223;unknown
64862;BME280;62652;42.274;-71.436;2023-03-04T01:31:01;100920.0;;;4.111111111111111;unknown
64862;BME280;62652;42.274;-71.436;2023-03-04T01:32:00;100920.0;;;4.111111111111111;unknown
64862;BME280;62652;42.274;-71.436;2023-03-04T01:33:00;100920.0;;;4.222222222222223;unknown
64862;BME280;62652;42.274;-71.436;2023-03-04T01:34:01;100920.0;;;4.111111111111111;unknown
64862;BME280;62652;42.274;-71.436;2023-03-04T01:35:00;100910.0;;;4.111111111111111;unknown
64862;BME280;62652;42.274;-71.436;2023-03-04T01:36:01;100920.0;;;4.111111111111111;unknown
64862;BME280;62652;42.274;-71.436;2023-03-04T01:37:00;100920.0;;;4.000000000000002;unknown
64862;BME280;62652;42.274;-71.436;2023-03-04T01:38:00;100910.0;;;4.000000000000002;unknown
64862;BME280;62652;42.274;-71.436;2023-03-04T01:39:01;100910.0;;;4.111111111111111;unknown
64862;BME280;62652;42.274;-71.436;2023-03-04T01:40:00;100900.0;;;4.111111111111111;unknown
64862;BME280;62652;42.274;-71.436;2023-03-04T01:41:01;100890.0;;;4.111111111111111;unknown
64862;BME280;62652;42.274;-71.436;2023-03-04T01:42:00;100890.0;;;4.111111111111111;unknown
64862;BME280;62652;42.274;-71.436;2023-03-04T01:43:00;100890.0;;;4.111111111111111;unknown
64862;BME280;62652;42.274;-71.436;2023-03-04T01:44:01;100890.0;;;4.111111111111111;unknown
64862;BME280;62652;42.274;-71.436;2023-03-04T01:45:01;100890.0;;;4.111111111111111;unknown
64862;BME280;62652;42.274;-71.436;2023-03-04T01:46:01;100890.0;;;4.000000000000002;unknown
64862;BME280;62652;42.274;-71.436;2023-03-04T01:47:00;100890.0;;;4.111111111111111;unknown
64862;BME280;62652;42.274;-71.436;2023-03-04T01:48:01;100890.0;;;4.000000000000002;unknown
64862;BME280;62652;42.274;-71.436;2023-03-04T01:49:00;100880.0;;;4.000000000000002;unknown
64862;BME280;62652;42.274;-71.436;2023-03-04T01:50:03;100880.0;;;4.000000000000002;unknown
64862;BME280;62652;42.274;-71.436;2023-03-04T01:51:01;100880.0;;;4.000000000000002;unknown
64862;BME280;62652;42.274;-71.436;2023-03-04T01:52:00;100870.0;;;4.000000000000002;unknown
64862;BME280;62652;42.274;-71.436;2023-03-04T01:53:01;100870.0;;;4.000000000000002;unknown
64862;BME280;62652;42.274;-71.436;2023-03-04T01:54:01;100870.0;;;4.000000000000002;unknown
64862;BME280;62652;42.274;-71.436;2023-03-04T01:55:01;100870.0;;;4.000000000000002;unknown
64862;BME280;62652;42.274;-71.436;2023-03-04T01:56:04;100870.0;;;4.000000000000002;unknown
64862;BME280;62652;42.274;-71.436;2023-03-04T01:57:01;100880.0;;;4.000000000000002;unknown
64862;BME280;62652;42.274;-71.436;2023-03-04T01:58:01;100880.0;;;4.000000000000002;unknown
64862;BME280;62652;42.274;-71.436;2023-03-04T01:59:11;100900.0;;;4.000000000000002;unknown
64862;BME280;62652;42.274;-71.436;2023-03-04T02:00:16;100890.0;;;4.000000000000002;unknown
64862;BME280;62652;42.274;-71.436;2023-03-04T02:01:00;100890.0;;;4.000000000000002;unknown
64862;BME280;62652;42.274;-71.436;2023-03-04T02:02:01;100880.0;;;3.888888888888889;unknown
64862;BME280;62652;42.274;-71.436;2023-03-04T02:03:04;100880.0;;;4.000000000000002;unknown
64862;BME280;62652;42.274;-71.436;2023-03-04T02:04:00;100870.0;;;4.000000000000002;unknown
64862;BME280;62652;42.274;-71.436;2023-03-04T02:05:00;100870.0;;;4.000000000000002;unknown
64862;BME280;62652;42.274;-71.436;2023-03-04T02:06:00;100860.0;;;3.888888888888889;unknown
64862;BME280;62652;42.274;-71.436;2023-03-04T02:07:02;100860.0;;;4.000000000000002;unknown
64862;BME280;62652;42.274;-71.436;2023-03-04T02:08:02;100860.0;;;4.000000000000002;unknown
64862;BME280;62652;42.274;-71.436;2023-03-04T02:09:01;100850.0;;;4.000000000000002;unknown
64862;BME280;62652;42.274;-71.436;2023-03-04T02:10:01;100850.0;;;4.000000000000002;unknown
64862;BME280;62652;42.274;-71.436;2023-03-04T02:11:01;100850.0;;;4.000000000000002;unknown
64862;BME280;62652;42.274;-71.436;2023-03-04T02:12:01;100840.0;;;3.888888888888889;unknown
64862;BME280;62652;42.274;-71.436;2023-03-04T02:13:02;100840.0;;;3.888888888888889;unknown
64862;BME280;62652;42.274;-71.436;2023-03-04T02:14:01;100840.0;;;3.888888888888889;unknown
64862;BME280;62652;42.274;-71.436;2023-03-04T02:15:01;100830.0;;;3.888888888888889;unknown
64862;BME280;62652;42.274;-71.436;2023-03-04T02:16:01;100840.0;;;3.888888888888889;unknown
64862;BME280;62652;42.274;-71.436;2023-03-04T02:17:01;100830.0;;;3.888888888888889;unknown
64862;BME280;62652;42.274;-71.436;2023-03-04T02:18:01;100830.0;;;3.888888888888889;unknown
64862;BME280;62652;42.274;-71.436;2023-03-04T02:19:01;100830.0;;;3.888888888888889;unknown
64862;BME280;62652;42.274;-71.436;2023-03-04T02:20:08;100820.0;;;3.888888888888889;unknown
64862;BME280;62652;42.274;-71.436;2023-03-04T02:21:06;100820.0;;;3.888888888888889;unknown
64862;BME280;62652;42.274;-71.436;2023-03-04T02:22:01;100820.0;;;3.7777777777777763;unknown
64862;BME280;62652;42.274;-71.436;2023-03-04T02:23:08;100820.0;;;3.7777777777777763;unknown
64862;BME280;62652;42.274;-71.436;2023-03-04T02:24:08;100820.0;;;3.7777777777777763;unknown
64862;BME280;62652;42.274;-71.436;2023-03-04T02:25:06;100820.0;;;3.7777777777777763;unknown
64862;BME280;62652;42.274;-71.436;2023-03-04T02:26:12;100820.0;;;3.7777777777777763;unknown
64862;BME280;62652;42.274;-71.436;2023-03-04T02:27:00;100820.0;;;3.888888888888889;unknown
64862;BME280;62652;42.274;-71.436;2023-03-04T02:28:01;100810.0;;;3.7777777777777763;unknown
64862;BME280;62652;42.274;-71.436;2023-03-04T02:29:02;100810.0;;;3.7777777777777763;unknown
64862;BME280;62652;42.274;-71.436;2023-03-04T02:30:01;100810.0;;;3.7777777777777763;unknown
64862;BME280;62652;42.274;-71.436;2023-03-04T02:31:00;100800.0;;;3.7777777777777763;unknown
64862;BME280;62652;42.274;-71.436;2023-03-04T02:32:00;100800.0;;;3.7777777777777763;unknown
64862;BME280;62652;42.274;-71.436;2023-03-04T02:33:01;100810.0;;;3.7777777777777763;unknown
64862;BME280;62652;42.274;-71.436;2023-03-04T02:34:04;100810.0;;;3.7777777777777763;unknown
64862;BME280;62652;42.274;-71.436;2023-03-04T02:35:01;100810.0;;;3.7777777777777763;unknown
64862;BME280;62652;42.274;-71.436;2023-03-04T02:36:00;100810.0;;;3.7777777777777763;unknown
64862;BME280;62652;42.274;-71.436;2023-03-04T02:37:02;100810.0;;;3.7777777777777763;unknown
64862;BME280;62652;42.274;-71.436;2023-03-04T02:38:00;100820.0;;;3.7777777777777763;unknown
64862;BME280;62652;42.274;-71.436;2023-03-04T02:39:03;100810.0;;;3.7777777777777763;unknown
64862;BME280;62652;42.274;-71.436;2023-03-04T02:40:01;100810.0;;;3.7222222222222237;unknown
64862;BME280;62652;42.274;-71.436;2023-03-04T02:41:02;100810.0;;;3.7777777777777763;unknown
64862;BME280;62652;42.274;-71.436;2023-03-04T02:42:02;100810.0;;;3.7777777777777763;unknown
64862;BME280;62652;42.274;-71.436;2023-03-04T02:43:01;100810.0;;;3.7777777777777763;unknown
64862;BME280;62652;42.274;-71.436;2023-03-04T02:44:01;100810.0;;;3.7777777777777763;unknown
64862;BME280;62652;42.274;-71.436;2023-03-04T02:45:01;100800.0;;;3.7777777777777763;unknown
64862;BME280;62652;42.274;-71.436;2023-03-04T02:46:01;100800.0;;;3.7777777777777763;unknown
64862;BME280;62652;42.274;-71.436;2023-03-04T02:47:00;100800.0;;;3.7777777777777763;unknown
64862;BME280;62652;42.274;-71.436;2023-03-04T02:48:00;100800.0;;;3.7777777777777763;unknown
64862;BME280;62652;42.274;-71.436;2023-03-04T02:49:00;100790.0;;;3.7777777777777763;unknown
64862;BME280;62652;42.274;-71.436;2023-03-04T02:50:01;100790.0;;;3.7777777777777763;unknown
64862;BME280;62652;42.274;-71.436;2023-03-04T02:51:01;100800.0;;;3.7777777777777763;unknown
64862;BME280;62652;42.274;-71.436;2023-03-04T02:52:03;100800.0;;;3.7222222222222237;unknown
64862;BME280;62652;42.274;-71.436;2023-03-04T02:53:01;100810.0;;;3.7222222222222237;unknown
64862;BME280;62652;42.274;-71.436;2023-03-04T02:54:01;100810.0;;;3.7222222222222237;unknown
64862;BME280;62652;42.274;-71.436;2023-03-04T02:55:00;100810.0;;;3.7222222222222237;unknown
64862;BME280;62652;42.274;-71.436;2023-03-04T02:56:01;100800.0;;;3.7222222222222237;unknown
64862;BME280;62652;42.274;-71.436;2023-03-04T02:57:03;100800.0;;;3.611111111111111;unknown
64862;BME280;62652;42.274;-71.436;2023-03-04T02:58:01;100790.0;;;3.611111111111111;unknown
64862;BME280;62652;42.274;-71.436;2023-03-04T02:59:00;100790.0;;;3.611111111111111;unknown
64862;BME280;62652;42.274;-71.436;2023-03-04T03:00:01;100790.0;;;3.611111111111111;unknown
64862;BME280;62652;42.274;-71.436;2023-03-04T03:01:01;100770.0;;;3.611111111111111;unknown
64862;BME280;62652;42.274;-71.436;2023-03-04T03:02:01;100770.0;;;3.611111111111111;unknown
64862;BME280;62652;42.274;-71.436;2023-03-04T03:03:01;100770.0;;;3.611111111111111;unknown
64862;BME280;62652;42.274;-71.436;2023-03-04T03:04:00;100770.0;;;3.7222222222222237;unknown
64862;BME280;62652;42.274;-71.436;2023-03-04T03:05:01;100770.0;;;3.7222222222222237;unknown
64862;BME280;62652;42.274;-71.436;2023-03-04T03:06:01;100760.0;;;3.7222222222222237;unknown
64862;BME280;62652;42.274;-71.436;2023-03-04T03:07:00;100760.0;;;3.611111111111111;unknown
64862;BME280;62652;42.274;-71.436;2023-03-04T03:08:01;100750.0;;;3.611111111111111;unknown
64862;BME280;62652;42.274;-71.436;2023-03-04T03:09:01;100750.0;;;3.611111111111111;unknown
64862;BME280;62652;42.274;-71.436;2023-03-04T03:10:00;100750.0;;;3.611111111111111;unknown
64862;BME280;62652;42.274;-71.436;2023-03-04T03:11:00;100750.0;;;3.611111111111111;unknown
64862;BME280;62652;42.274;-71.436;2023-03-04T03:12:01;100750.0;;;3.611111111111111;unknown
64862;BME280;62652;42.274;-71.436;2023-03-04T03:13:00;100740.0;;;3.611111111111111;unknown
64862;BME280;62652;42.274;-71.436;2023-03-04T03:14:01;100750.0;;;3.611111111111111;unknown
64862;BME280;62652;42.274;-71.436;2023-03-04T03:15:00;100750.0;;;3.4999999999999982;unknown
64862;BME280;62652;42.274;-71.436;2023-03-04T03:16:01;100740.0;;;3.4999999999999982;unknown
64862;BME280;62652;42.274;-71.436;2023-03-04T03:17:01;100740.0;;;3.4999999999999982;unknown
64862;BME280;62652;42.274;-71.436;2023-03-04T03:18:00;100740.0;;;3.4999999999999982;unknown
64862;BME280;62652;42.274;-71.436;2023-03-04T03:19:01;100740.0;;;3.4999999999999982;unknown
64862;BME280;62652;42.274;-71.436;2023-03-04T03:20:01;100730.0;;;3.611111111111111;unknown
64862;BME280;62652;42.274;-71.436;2023-03-04T03:21:01;100730.0;;;3.611111111111111;unknown
64862;BME280;62652;42.274;-71.436;2023-03-04T03:22:00;100730.0;;;3.4999999999999982;unknown
64862;BME280;62652;42.274;-71.436;2023-03-04T03:23:00;100730.0;;;3.611111111111111;unknown
64862;BME280;62652;42.274;-71.436;2023-03-04T03:24:01;100720.0;;;3.4999999999999982;unknown
64862;BME280;62652;42.274;-71.436;2023-03-04T03:25:01;100720.0;;;3.4999999999999982;unknown
64862;BME280;62652;42.274;-71.436;2023-03-04T03:26:01;100720.0;;;3.4999999999999982;unknown
64862;BME280;62652;42.274;-71.436;2023-03-04T03:27:01;100730.0;;;3.4999999999999982;unknown
64862;BME280;62652;42.274;-71.436;2023-03-04T03:28:00;100740.0;;;3.4999999999999982;unknown
64862;BME280;62652;42.274;-71.436;2023-03-04T03:29:00;100740.0;;;3.4999999999999982;unknown
64862;BME280;62652;42.274;-71.436;2023-03-04T03:30:01;100750.0;;;3.611111111111111;unknown
64862;BME280;62652;42.274;-71.436;2023-03-04T03:31:01;100750.0;;;3.4999999999999982;unknown
64862;BME280;62652;42.274;-71.436;2023-03-04T03:32:00;100760.0;;;3.4999999999999982;unknown
64862;BME280;62652;42.274;-71.436;2023-03-04T03:33:00;100760.0;;;3.4999999999999982;unknown
64862;BME280;62652;42.274;-71.436;2023-03-04T03:34:01;100760.0;;;3.3888888888888897;unknown
64862;BME280;62652;42.274;-71.436;2023-03-04T03:35:01;100770.0;;;3.3888888888888897;unknown
64862;BME280;62652;42.274;-71.436;2023-03-04T03:36:01;100770.0;;;3.4999999999999982;unknown
64862;BME280;62652;42.274;-71.436;2023-03-04T03:37:01;100770.0;;;3.4999999999999982;unknown
64862;BME280;62652;42.274;-71.436;2023-03-04T03:38:01;100770.0;;;3.4999999999999982;unknown
64862;BME280;62652;42.274;-71.436;2023-03-04T03:39:01;100760.0;;;3.4999999999999982;unknown
64862;BME280;62652;42.274;-71.436;2023-03-04T03:40:00;100760.0;;;3.611111111111111;unknown
64862;BME280;62652;42.274;-71.436;2023-03-04T03:41:01;100750.0;;;3.611111111111111;unknown
64862;BME280;62652;42.274;-71.436;2023-03-04T03:42:01;100740.0;;;3.611111111111111;unknown
64862;BME280;62652;42.274;-71.436;2023-03-04T03:43:01;100740.0;;;3.611111111111111;unknown
64862;BME280;62652;42.274;-71.436;2023-03-04T03:44:01;100740.0;;;3.4999999999999982;unknown
64862;BME280;62652;42.274;-71.436;2023-03-04T03:45:01;100740.0;;;3.4999999999999982;unknown
64862;BME280;62652;42.274;-71.436;2023-03-04T03:46:00;100750.0;;;3.4999999999999982;unknown
64862;BME280;62652;42.274;-71.436;2023-03-04T03:47:00;100740.0;;;3.4999999999999982;unknown
64862;BME280;62652;42.274;-71.436;2023-03-04T03:48:01;100730.0;;;3.611111111111111;unknown
64862;BME280;62652;42.274;-71.436;2023-03-04T03:49:00;100740.0;;;3.4999999999999982;unknown
64862;BME280;62652;42.274;-71.436;2023-03-04T03:50:01;100730.0;;;3.3888888888888897;unknown
64862;BME280;62652;42.274;-71.436;2023-03-04T03:51:00;100740.0;;;3.3888888888888897;unknown
64862;BME280;62652;42.274;-71.436;2023-03-04T03:52:00;100740.0;;;3.277777777777777;unknown
64862;BME280;62652;42.274;-71.436;2023-03-04T03:53:01;100740.0;;;3.3888888888888897;unknown
64862;BME280;62652;42.274;-71.436;2023-03-04T03:54:01;100740.0;;;3.3888888888888897;unknown
64862;BME280;62652;42.274;-71.436;2023-03-04T03:55:01;100730.0;;;3.3888888888888897;unknown
64862;BME280;62652;42.274;-71.436;2023-03-04T03:56:00;100730.0;;;3.3888888888888897;unknown
64862;BME280;62652;42.274;-71.436;2023-03-04T03:57:00;100730.0;;;3.3888888888888897;unknown
64862;BME280;62652;42.274;-71.436;2023-03-04T03:58:00;100730.0;;;3.3888888888888897;unknown
64862;BME280;62652;42.274;-71.436;2023-03-04T03:59:01;100730.0;;;3.3888888888888897;unknown
64862;BME280;62652;42.274;-71.436;2023-03-04T04:00:00;100730.0;;;3.3888888888888897;unknown
64862;BME280;62652;42.274;-71.436;2023-03-04T04:01:00;100730.0;;;3.3888888888888897;unknown
64862;BME280;62652;42.274;-71.436;2023-03-04T04:02:01;100730.0;;;3.3888888888888897;unknown
64862;BME280;62652;42.274;-71.436;2023-03-04T04:03:01;100730.0;;;3.3888888888888897;unknown
64862;BME280;62652;42.274;-71.436;2023-03-04T04:04:01;100730.0;;;3.3888888888888897;unknown
64862;BME280;62652;42.274;-71.436;2023-03-04T04:05:01;100730.0;;;3.3888888888888897;unknown
64862;BME280;62652;42.274;-71.436;2023-03-04T04:06:01;100730.0;;;3.3888888888888897;unknown
64862;BME280;62652;42.274;-71.436;2023-03-04T04:07:00;100730.0;;;3.3888888888888897;unknown
64862;BME280;62652;42.274;-71.436;2023-03-04T04:08:00;100730.0;;;3.3888888888888897;unknown
64862;BME280;62652;42.274;-71.436;2023-03-04T04:09:01;100730.0;;;3.3888888888888897;unknown
64862;BME280;62652;42.274;-71.436;2023-03-04T04:10:01;100730.0;;;3.3888888888888897;unknown
64862;BME280;62652;42.274;-71.436;2023-03-04T04:11:00;100730.0;;;3.3888888888888897;unknown
64862;BME280;62652;42.274;-71.436;2023-03-04T04:12:00;100730.0;;;3.3888888888888897;unknown
64862;BME280;62652;42.274;-71.436;2023-03-04T04:13:00;100730.0;;;3.3888888888888897;unknown
64862;BME280;62652;42.274;-71.436;2023-03-04T04:14:00;100730.0;;;3.3888888888888897;unknown
64862;BME280;62652;42.274;-71.436;2023-03-04T04:15:01;100730.0;;;3.3888888888888897;unknown
64862;BME280;62652;42.274;-71.436;2023-03-04T04:16:01;100730.0;;;3.3888888888888897;unknown
64862;BME280;62652;42.274;-71.436;2023-03-04T04:17:01;100730.0;;;3.3888888888888897;unknown
64862;BME280;62652;42.274;-71.436;2023-03-04T04:18:01;100730.0;;;3.3888888888888897;unknown
64862;BME280;62652;42.274;-71.436;2023-03-04T04:19:00;100730.0;;;3.3888888888888897;unknown
64862;BME280;62652;42.274;-71.436;2023-03-04T04:20:00;100730.0;;;3.3888888888888897;unknown